Terminal Aerodrome Forecast
Issued by NWS

Home | Current Version | Previous Version | Graphics & Text | Print | Product List | Glossary On
Versions: 1 2 3 4 5 6 7 8 9 10 11 12 13 14 15 16 17
000
FTUS43 KOAX 260542
TAFCDR
TAF
KCDR 260542Z 2606/2706 01010KT 2SM -SN SCT008 OVC015
     FM261500 05004KT 4SM -SHSN OVC015
     FM262100 36007KT P6SM VCSH OVC020
     FM270400 27006KT P6SM OVC025=

USA.gov is the U.S. government's official web portal to all federal, state and local government web resources and services.